sensor_id;sensor_type;location;lat;lon;timestamp;pressure;altitude;pressure_sealevel;temperature;humidity
2000;BME280;1001;48.87406500;9.59633600;2023-02-13T00:02:25;96864.16;;;2.85;100.00
2000;BME280;1001;48.87406500;9.59633600;2023-02-13T00:04:52;96875.84;;;2.89;100.00
2000;BME280;1001;48.87406500;9.59633600;2023-02-13T00:07:18;96870.44;;;2.83;100.00
2000;BME280;1001;48.87406500;9.59633600;2023-02-13T00:09:45;96878.59;;;2.78;100.00
2000;BME280;1001;48.87406500;9.59633600;2023-02-13T00:12:11;96871.94;;;2.75;100.00
2000;BME280;1001;48.87406500;9.59633600;2023-02-13T00:14:38;96862.69;;;2.83;100.00
2000;BME280;1001;48.87406500;9.59633600;2023-02-13T00:17:06;96867.56;;;2.86;100.00
2000;BME280;1001;48.87406500;9.59633600;2023-02-13T00:19:33;96864.00;;;2.96;100.00
2000;BME280;1001;48.87406500;9.59633600;2023-02-13T00:22:00;96859.66;;;2.97;100.00
2000;BME280;1001;48.87406500;9.59633600;2023-02-13T00:24:26;96859.16;;;2.93;100.00
2000;BME280;1001;48.87406500;9.59633600;2023-02-13T00:26:56;96852.75;;;2.88;100.00
2000;BME280;1001;48.87406500;9.59633600;2023-02-13T00:29:22;96862.50;;;2.94;100.00
2000;BME280;1001;48.87406500;9.59633600;2023-02-13T00:31:49;96857.66;;;2.91;100.00
2000;BME280;1001;48.87406500;9.59633600;2023-02-13T00:34:17;96863.34;;;2.94;100.00
2000;BME280;1001;48.87406500;9.59633600;2023-02-13T00:36:44;96858.44;;;2.82;100.00
2000;BME280;1001;48.87406500;9.59633600;2023-02-13T00:39:11;96857.78;;;2.89;100.00
2000;BME280;1001;48.87406500;9.59633600;2023-02-13T00:41:38;96862.25;;;2.87;100.00
2000;BME280;1001;48.87406500;9.59633600;2023-02-13T00:44:04;96861.31;;;2.88;100.00
2000;BME280;1001;48.87406500;9.59633600;2023-02-13T00:46:31;96865.53;;;2.80;100.00
2000;BME280;1001;48.87406500;9.59633600;2023-02-13T00:48:58;96858.88;;;2.77;100.00
2000;BME280;1001;48.87406500;9.59633600;2023-02-13T00:51:26;96854.94;;;2.83;100.00
2000;BME280;1001;48.87406500;9.59633600;2023-02-13T00:53:52;96857.66;;;2.81;100.00
2000;BME280;1001;48.87406500;9.59633600;2023-02-13T00:56:19;96853.84;;;2.75;100.00
2000;BME280;1001;48.87406500;9.59633600;2023-02-13T00:58:46;96854.41;;;2.79;100.00
2000;BME280;1001;48.87406500;9.59633600;2023-02-13T01:01:12;96857.78;;;2.80;100.00
2000;BME280;1001;48.87406500;9.59633600;2023-02-13T01:03:39;96859.44;;;2.71;100.00
2000;BME280;1001;48.87406500;9.59633600;2023-02-13T01:06:06;96845.94;;;2.77;100.00
2000;BME280;1001;48.87406500;9.59633600;2023-02-13T01:08:37;96849.25;;;2.79;100.00
2000;BME280;1001;48.87406500;9.59633600;2023-02-13T01:11:05;96836.84;;;2.73;100.00
2000;BME280;1001;48.87406500;9.59633600;2023-02-13T01:13:33;96844.34;;;2.66;100.00
2000;BME280;1001;48.87406500;9.59633600;2023-02-13T01:16:00;96840.69;;;2.69;100.00
2000;BME280;1001;48.87406500;9.59633600;2023-02-13T01:18:27;96831.84;;;2.62;100.00
2000;BME280;1001;48.87406500;9.59633600;2023-02-13T01:20:58;96833.34;;;2.64;100.00
2000;BME280;1001;48.87406500;9.59633600;2023-02-13T01:23:28;96836.34;;;2.60;100.00
2000;BME280;1001;48.87406500;9.59633600;2023-02-13T01:25:57;96833.75;;;2.60;100.00
2000;BME280;1001;48.87406500;9.59633600;2023-02-13T01:28:24;96842.59;;;2.57;100.00
2000;BME280;1001;48.87406500;9.59633600;2023-02-13T01:30:54;96840.13;;;2.56;100.00
2000;BME280;1001;48.87406500;9.59633600;2023-02-13T01:33:21;96842.28;;;2.60;100.00
2000;BME280;1001;48.87406500;9.59633600;2023-02-13T01:35:48;96833.59;;;2.61;100.00
2000;BME280;1001;48.87406500;9.59633600;2023-02-13T01:38:14;96834.69;;;2.59;100.00
2000;BME280;1001;48.87406500;9.59633600;2023-02-13T01:40:45;96841.09;;;2.55;100.00
2000;BME280;1001;48.87406500;9.59633600;2023-02-13T01:43:13;96830.78;;;2.55;100.00
2000;BME280;1001;48.87406500;9.59633600;2023-02-13T01:45:40;96837.28;;;2.59;100.00
2000;BME280;1001;48.87406500;9.59633600;2023-02-13T01:48:12;96830.09;;;2.53;100.00
2000;BME280;1001;48.87406500;9.59633600;2023-02-13T01:50:44;96825.19;;;2.50;100.00
2000;BME280;1001;48.87406500;9.59633600;2023-02-13T01:53:18;96834.03;;;2.47;100.00
2000;BME280;1001;48.87406500;9.59633600;2023-02-13T01:55:51;96835.78;;;2.47;100.00
2000;BME280;1001;48.87406500;9.59633600;2023-02-13T01:58:21;96834.44;;;2.43;100.00
2000;BME280;1001;48.87406500;9.59633600;2023-02-13T02:00:50;96831.72;;;2.44;100.00
2000;BME280;1001;48.87406500;9.59633600;2023-02-13T02:03:19;96841.91;;;2.46;100.00
2000;BME280;1001;48.87406500;9.59633600;2023-02-13T02:05:49;96828.03;;;2.37;100.00
2000;BME280;1001;48.87406500;9.59633600;2023-02-13T02:08:17;96836.06;;;2.34;100.00
2000;BME280;1001;48.87406500;9.59633600;2023-02-13T02:10:44;96830.34;;;2.31;100.00
2000;BME280;1001;48.87406500;9.59633600;2023-02-13T02:13:13;96833.50;;;2.34;100.00
2000;BME280;1001;48.87406500;9.59633600;2023-02-13T02:15:41;96831.84;;;2.33;100.00
2000;BME280;1001;48.87406500;9.59633600;2023-02-13T02:18:13;96825.19;;;2.31;100.00
2000;BME280;1001;48.87406500;9.59633600;2023-02-13T02:21:05;96827.50;;;2.24;100.00
2000;BME280;1001;48.87406500;9.59633600;2023-02-13T02:24:13;96829.53;;;2.30;100.00
2000;BME280;1001;48.87406500;9.59633600;2023-02-13T02:29:56;96829.69;;;2.19;100.00
2000;BME280;1001;48.87406500;9.59633600;2023-02-13T02:35:43;96822.75;;;2.10;100.00
2000;BME280;1001;48.87406500;9.59633600;2023-02-13T02:38:24;96822.19;;;2.16;100.00
2000;BME280;1001;48.87406500;9.59633600;2023-02-13T02:40:58;96811.47;;;2.21;100.00
2000;BME280;1001;48.87406500;9.59633600;2023-02-13T02:43:43;96819.34;;;2.19;100.00
2000;BME280;1001;48.87406500;9.59633600;2023-02-13T02:46:18;96817.31;;;2.23;100.00
2000;BME280;1001;48.87406500;9.59633600;2023-02-13T02:48:53;96813.78;;;2.24;100.00
2000;BME280;1001;48.87406500;9.59633600;2023-02-13T02:51:47;96813.78;;;2.33;100.00
2000;BME280;1001;48.87406500;9.59633600;2023-02-13T02:54:21;96813.94;;;2.32;100.00
2000;BME280;1001;48.87406500;9.59633600;2023-02-13T02:57:10;96810.53;;;2.31;100.00
2000;BME280;1001;48.87406500;9.59633600;2023-02-13T02:59:42;96812.69;;;2.26;100.00
2000;BME280;1001;48.87406500;9.59633600;2023-02-13T03:02:27;96811.88;;;2.26;100.00
2000;BME280;1001;48.87406500;9.59633600;2023-02-13T03:05:17;96817.03;;;2.26;100.00
2000;BME280;1001;48.87406500;9.59633600;2023-02-13T03:08:03;96802.53;;;2.25;100.00
2000;BME280;1001;48.87406500;9.59633600;2023-02-13T03:10:34;96807.28;;;2.29;100.00
2000;BME280;1001;48.87406500;9.59633600;2023-02-13T03:13:33;96818.00;;;2.25;100.00
2000;BME280;1001;48.87406500;9.59633600;2023-02-13T03:16:04;96817.88;;;2.26;100.00
2000;BME280;1001;48.87406500;9.59633600;2023-02-13T03:18:51;96819.63;;;2.26;100.00
2000;BME280;1001;48.87406500;9.59633600;2023-02-13T03:21:46;96818.28;;;2.22;100.00
2000;BME280;1001;48.87406500;9.59633600;2023-02-13T03:24:38;96818.28;;;2.22;100.00
2000;BME280;1001;48.87406500;9.59633600;2023-02-13T03:27:14;96825.59;;;2.17;100.00
2000;BME280;1001;48.87406500;9.59633600;2023-02-13T03:30:13;96830.59;;;2.18;100.00
2000;BME280;1001;48.87406500;9.59633600;2023-02-13T03:32:44;96825.19;;;2.12;100.00
2000;BME280;1001;48.87406500;9.59633600;2023-02-13T03:35:26;96833.88;;;2.20;100.00
2000;BME280;1001;48.87406500;9.59633600;2023-02-13T03:38:20;96835.66;;;2.20;100.00
2000;BME280;1001;48.87406500;9.59633600;2023-02-13T03:40:50;96838.25;;;2.20;100.00
2000;BME280;1001;48.87406500;9.59633600;2023-02-13T03:43:45;96845.00;;;2.21;100.00
2000;BME280;1001;48.87406500;9.59633600;2023-02-13T03:46:16;96856.72;;;2.25;100.00
2000;BME280;1001;48.87406500;9.59633600;2023-02-13T03:48:45;96852.22;;;2.27;100.00
2000;BME280;1001;48.87406500;9.59633600;2023-02-13T03:51:33;96851.13;;;2.20;100.00
2000;BME280;1001;48.87406500;9.59633600;2023-02-13T03:54:10;96849.75;;;2.06;100.00
2000;BME280;1001;48.87406500;9.59633600;2023-02-13T03:56:39;96850.72;;;2.05;100.00
2000;BME280;1001;48.87406500;9.59633600;2023-02-13T03:59:28;96854.88;;;1.96;100.00
2000;BME280;1001;48.87406500;9.59633600;2023-02-13T04:02:01;96859.09;;;1.97;100.00
2000;BME280;1001;48.87406500;9.59633600;2023-02-13T04:04:34;96860.19;;;1.95;100.00
2000;BME280;1001;48.87406500;9.59633600;2023-02-13T04:07:06;96858.16;;;1.89;100.00
2000;BME280;1001;48.87406500;9.59633600;2023-02-13T04:09:37;96855.53;;;1.79;100.00
2000;BME280;1001;48.87406500;9.59633600;2023-02-13T04:12:12;96860.81;;;1.78;100.00
2000;BME280;1001;48.87406500;9.59633600;2023-02-13T04:14:45;96859.88;;;1.79;100.00
2000;BME280;1001;48.87406500;9.59633600;2023-02-13T04:17:17;96871.84;;;1.89;100.00
2000;BME280;1001;48.87406500;9.59633600;2023-02-13T04:19:47;96865.47;;;1.93;100.00
2000;BME280;1001;48.87406500;9.59633600;2023-02-13T04:22:14;96867.78;;;1.96;100.00
2000;BME280;1001;48.87406500;9.59633600;2023-02-13T04:24:42;96868.88;;;1.94;100.00
2000;BME280;1001;48.87406500;9.59633600;2023-02-13T04:27:11;96866.97;;;1.96;100.00
2000;BME280;1001;48.87406500;9.59633600;2023-02-13T04:29:39;96874.56;;;1.97;100.00
2000;BME280;1001;48.87406500;9.59633600;2023-02-13T04:32:06;96876.22;;;1.98;100.00
2000;BME280;1001;48.87406500;9.59633600;2023-02-13T04:34:32;96878.81;;;1.98;100.00
2000;BME280;1001;48.87406500;9.59633600;2023-02-13T04:37:01;96877.16;;;1.97;100.00
2000;BME280;1001;48.87406500;9.59633600;2023-02-13T04:39:27;96872.00;;;1.97;100.00
2000;BME280;1001;48.87406500;9.59633600;2023-02-13T04:41:55;96875.81;;;2.03;100.00
2000;BME280;1001;48.87406500;9.59633600;2023-02-13T04:44:22;96877.97;;;1.98;100.00
2000;BME280;1001;48.87406500;9.59633600;2023-02-13T04:46:49;96871.84;;;1.99;100.00
2000;BME280;1001;48.87406500;9.59633600;2023-02-13T04:49:15;96875.81;;;2.03;100.00
2000;BME280;1001;48.87406500;9.59633600;2023-02-13T04:51:42;96868.88;;;1.94;100.00
2000;BME280;1001;48.87406500;9.59633600;2023-02-13T04:54:09;96871.28;;;1.86;100.00
2000;BME280;1001;48.87406500;9.59633600;2023-02-13T04:56:36;96876.44;;;1.86;100.00
2000;BME280;1001;48.87406500;9.59633600;2023-02-13T04:59:04;96861.81;;;1.86;100.00
2000;BME280;1001;48.87406500;9.59633600;2023-02-13T05:01:30;96874.97;;;1.93;100.00
2000;BME280;1001;48.87406500;9.59633600;2023-02-13T05:03:57;96875.63;;;1.85;100.00
2000;BME280;1001;48.87406500;9.59633600;2023-02-13T05:06:24;96873.16;;;1.74;100.00
2000;BME280;1001;48.87406500;9.59633600;2023-02-13T05:08:50;96876.41;;;1.76;100.00
2000;BME280;1001;48.87406500;9.59633600;2023-02-13T05:11:17;96874.13;;;1.83;100.00
2000;BME280;1001;48.87406500;9.59633600;2023-02-13T05:13:43;96875.78;;;1.84;100.00
2000;BME280;1001;48.87406500;9.59633600;2023-02-13T05:16:11;96866.09;;;1.76;100.00
2000;BME280;1001;48.87406500;9.59633600;2023-02-13T05:18:38;96870.41;;;1.66;100.00
2000;BME280;1001;48.87406500;9.59633600;2023-02-13T05:21:05;96877.03;;;1.59;100.00
2000;BME280;1001;48.87406500;9.59633600;2023-02-13T05:23:49;96876.34;;;1.57;100.00
2000;BME280;1001;48.87406500;9.59633600;2023-02-13T05:26:16;96880.81;;;1.55;100.00
2000;BME280;1001;48.87406500;9.59633600;2023-02-13T05:28:42;96872.94;;;1.57;100.00
2000;BME280;1001;48.87406500;9.59633600;2023-02-13T05:31:28;96885.44;;;1.61;100.00
2000;BME280;1001;48.87406500;9.59633600;2023-02-13T05:33:54;96876.06;;;1.51;100.00
2000;BME280;1001;48.87406500;9.59633600;2023-02-13T05:36:21;96873.69;;;1.38;100.00
2000;BME280;1001;48.87406500;9.59633600;2023-02-13T05:38:48;96877.63;;;1.32;100.00
2000;BME280;1001;48.87406500;9.59633600;2023-02-13T05:41:14;96869.34;;;1.38;100.00
2000;BME280;1001;48.87406500;9.59633600;2023-02-13T05:43:41;96878.41;;;1.33;100.00
2000;BME280;1001;48.87406500;9.59633600;2023-02-13T05:46:09;96885.06;;;1.35;100.00
2000;BME280;1001;48.87406500;9.59633600;2023-02-13T05:48:37;96877.22;;;1.37;100.00
2000;BME280;1001;48.87406500;9.59633600;2023-02-13T05:51:04;96881.25;;;1.30;100.00
2000;BME280;1001;48.87406500;9.59633600;2023-02-13T05:53:31;96871.44;;;1.24;100.00
2000;BME280;1001;48.87406500;9.59633600;2023-02-13T05:55:59;96868.63;;;1.27;100.00
2000;BME280;1001;48.87406500;9.59633600;2023-02-13T05:58:26;96868.50;;;1.28;100.00
2000;BME280;1001;48.87406500;9.59633600;2023-02-13T06:00:54;96857.25;;;1.29;100.00
2000;BME280;1001;48.87406500;9.59633600;2023-02-13T06:03:21;96870.00;;;1.31;100.00
2000;BME280;1001;48.87406500;9.59633600;2023-02-13T06:05:49;96872.13;;;1.26;100.00
2000;BME280;1001;48.87406500;9.59633600;2023-02-13T06:08:15;96870.53;;;1.25;100.00
2000;BME280;1001;48.87406500;9.59633600;2023-02-13T06:10:42;96874.59;;;1.27;100.00
2000;BME280;1001;48.87406500;9.59633600;2023-02-13T06:13:09;96871.59;;;1.22;100.00
2000;BME280;1001;48.87406500;9.59633600;2023-02-13T06:15:35;96875.09;;;1.21;100.00
2000;BME280;1001;48.87406500;9.59633600;2023-02-13T06:18:02;96866.81;;;1.18;100.00
2000;BME280;1001;48.87406500;9.59633600;2023-02-13T06:20:29;96869.25;;;1.19;100.00
2000;BME280;1001;48.87406500;9.59633600;2023-02-13T06:22:57;96881.59;;;1.16;100.00
2000;BME280;1001;48.87406500;9.59633600;2023-02-13T06:25:24;96873.03;;;1.15;100.00
2000;BME280;1001;48.87406500;9.59633600;2023-02-13T06:27:52;96878.06;;;1.17;100.00
2000;BME280;1001;48.87406500;9.59633600;2023-02-13T06:30:19;96876.94;;;1.10;100.00
2000;BME280;1001;48.87406500;9.59633600;2023-02-13T06:32:47;96880.09;;;1.13;100.00
2000;BME280;1001;48.87406500;9.59633600;2023-02-13T06:35:14;96878.44;;;1.12;100.00
2000;BME280;1001;48.87406500;9.59633600;2023-02-13T06:37:41;96875.47;;;1.17;100.00
2000;BME280;1001;48.87406500;9.59633600;2023-02-13T06:40:12;96885.25;;;1.13;100.00
2000;BME280;1001;48.87406500;9.59633600;2023-02-13T06:42:39;96882.91;;;1.10;100.00
2000;BME280;1001;48.87406500;9.59633600;2023-02-13T06:45:07;96884.28;;;1.14;100.00
2000;BME280;1001;48.87406500;9.59633600;2023-02-13T06:47:34;96880.38;;;1.20;100.00
2000;BME280;1001;48.87406500;9.59633600;2023-02-13T06:50:01;96897.75;;;1.18;100.00
2000;BME280;1001;48.87406500;9.59633600;2023-02-13T06:52:27;96882.78;;;1.12;100.00
2000;BME280;1001;48.87406500;9.59633600;2023-02-13T06:54:55;96879.94;;;1.15;100.00
2000;BME280;1001;48.87406500;9.59633600;2023-02-13T06:57:23;96886.84;;;1.14;100.00
2000;BME280;1001;48.87406500;9.59633600;2023-02-13T06:59:49;96894.41;;;1.27;100.00
2000;BME280;1001;48.87406500;9.59633600;2023-02-13T07:02:16;96889.25;;;1.27;100.00
2000;BME280;1001;48.87406500;9.59633600;2023-02-13T07:04:43;96898.09;;;1.34;100.00
2000;BME280;1001;48.87406500;9.59633600;2023-02-13T07:07:09;96899.16;;;1.31;100.00
2000;BME280;1001;48.87406500;9.59633600;2023-02-13T07:09:36;96894.41;;;1.27;100.00
2000;BME280;1001;48.87406500;9.59633600;2023-02-13T07:12:03;96895.47;;;1.24;100.00
2000;BME280;1001;48.87406500;9.59633600;2023-02-13T07:14:31;96901.44;;;1.25;100.00
2000;BME280;1001;48.87406500;9.59633600;2023-02-13T07:16:58;96889.72;;;1.21;100.00
2000;BME280;1001;48.87406500;9.59633600;2023-02-13T07:19:24;96898.03;;;1.24;100.00
2000;BME280;1001;48.87406500;9.59633600;2023-02-13T07:21:51;96889.69;;;1.11;100.00
2000;BME280;1001;48.87406500;9.59633600;2023-02-13T07:24:18;96894.41;;;1.27;100.00
2000;BME280;1001;48.87406500;9.59633600;2023-02-13T07:26:44;96903.44;;;1.21;100.00
2000;BME280;1001;48.87406500;9.59633600;2023-02-13T07:29:11;96900.47;;;1.26;100.00
2000;BME280;1001;48.87406500;9.59633600;2023-02-13T07:31:39;96898.47;;;1.29;100.00
2000;BME280;1001;48.87406500;9.59633600;2023-02-13T07:34:06;96901.31;;;1.26;100.00
2000;BME280;1001;48.87406500;9.59633600;2023-02-13T07:36:33;96894.69;;;1.33;100.00
2000;BME280;1001;48.87406500;9.59633600;2023-02-13T07:39:00;96894.44;;;1.36;100.00
2000;BME280;1001;48.87406500;9.59633600;2023-02-13T07:41:26;96907.81;;;1.51;100.00
2000;BME280;1001;48.87406500;9.59633600;2023-02-13T07:43:56;96897.41;;;1.62;100.00
2000;BME280;1001;48.87406500;9.59633600;2023-02-13T07:46:22;96899.44;;;1.68;100.00
2000;BME280;1001;48.87406500;9.59633600;2023-02-13T07:48:52;96902.03;;;1.68;100.00
2000;BME280;1001;48.87406500;9.59633600;2023-02-13T07:51:18;96906.78;;;1.73;100.00
2000;BME280;1001;48.87406500;9.59633600;2023-02-13T07:53:49;96908.19;;;1.77;100.00
2000;BME280;1001;48.87406500;9.59633600;2023-02-13T07:56:16;96909.00;;;1.77;100.00
2000;BME280;1001;48.87406500;9.59633600;2023-02-13T07:58:42;96905.22;;;1.81;100.00
2000;BME280;1001;48.87406500;9.59633600;2023-02-13T08:01:10;96909.63;;;2.00;100.00
2000;BME280;1001;48.87406500;9.59633600;2023-02-13T08:03:38;96904.31;;;2.01;100.00
2000;BME280;1001;48.87406500;9.59633600;2023-02-13T08:06:06;96914.81;;;2.19;100.00
2000;BME280;1001;48.87406500;9.59633600;2023-02-13T08:08:34;96903.53;;;2.20;100.00
2000;BME280;1001;48.87406500;9.59633600;2023-02-13T08:11:04;96907.09;;;2.29;100.00
2000;BME280;1001;48.87406500;9.59633600;2023-02-13T08:13:50;96901.28;;;2.36;100.00
2000;BME280;1001;48.87406500;9.59633600;2023-02-13T08:16:17;96902.78;;;2.48;100.00
2000;BME280;1001;48.87406500;9.59633600;2023-02-13T08:18:44;96910.00;;;2.73;100.00
2000;BME280;1001;48.87406500;9.59633600;2023-02-13T08:21:12;96905.09;;;2.80;100.00
2000;BME280;1001;48.87406500;9.59633600;2023-02-13T08:23:41;96900.84;;;3.08;100.00
2000;BME280;1001;48.87406500;9.59633600;2023-02-13T08:26:11;96899.44;;;3.32;100.00
2000;BME280;1001;48.87406500;9.59633600;2023-02-13T08:28:37;96902.53;;;3.45;100.00
2000;BME280;1001;48.87406500;9.59633600;2023-02-13T08:31:09;96902.69;;;3.44;100.00
2000;BME280;1001;48.87406500;9.59633600;2023-02-13T08:33:35;96902.63;;;3.63;100.00
2000;BME280;1001;48.87406500;9.59633600;2023-02-13T08:36:03;96904.22;;;3.74;100.00
2000;BME280;1001;48.87406500;9.59633600;2023-02-13T08:38:32;96904.47;;;3.80;100.00
2000;BME280;1001;48.87406500;9.59633600;2023-02-13T08:40:58;96908.06;;;3.97;100.00
2000;BME280;1001;48.87406500;9.59633600;2023-02-13T08:43:25;96904.06;;;4.02;100.00
2000;BME280;1001;48.87406500;9.59633600;2023-02-13T08:45:52;96911.78;;;4.12;100.00
2000;BME280;1001;48.87406500;9.59633600;2023-02-13T08:48:18;96914.25;;;4.13;100.00
2000;BME280;1001;48.87406500;9.59633600;2023-02-13T08:50:45;96907.03;;;4.07;100.00
2000;BME280;1001;48.87406500;9.59633600;2023-02-13T08:53:11;96913.16;;;4.16;100.00
2000;BME280;1001;48.87406500;9.59633600;2023-02-13T08:55:39;96908.59;;;4.28;100.00
2000;BME280;1001;48.87406500;9.59633600;2023-02-13T08:58:06;96916.97;;;4.39;100.00
2000;BME280;1001;48.87406500;9.59633600;2023-02-13T09:00:33;96912.66;;;4.48;100.00
2000;BME280;1001;48.87406500;9.59633600;2023-02-13T09:03:00;96909.06;;;4.58;99.82
2000;BME280;1001;48.87406500;9.59633600;2023-02-13T09:05:27;96918.53;;;4.67;99.13
2000;BME280;1001;48.87406500;9.59633600;2023-02-13T09:07:58;96911.56;;;4.86;99.88
2000;BME280;1001;48.87406500;9.59633600;2023-02-13T09:10:25;96908.91;;;4.95;98.67
2000;BME280;1001;48.87406500;9.59633600;2023-02-13T09:12:53;96902.38;;;4.73;97.13
2000;BME280;1001;48.87406500;9.59633600;2023-02-13T09:15:20;96909.44;;;4.99;96.91
2000;BME280;1001;48.87406500;9.59633600;2023-02-13T09:17:47;96912.03;;;4.99;96.48
2000;BME280;1001;48.87406500;9.59633600;2023-02-13T09:20:13;96908.16;;;5.20;96.69
2000;BME280;1001;48.87406500;9.59633600;2023-02-13T09:22:40;96917.63;;;5.37;96.74
2000;BME280;1001;48.87406500;9.59633600;2023-02-13T09:25:08;96917.81;;;5.36;95.93
2000;BME280;1001;48.87406500;9.59633600;2023-02-13T09:27:35;96914.09;;;5.38;95.05
2000;BME280;1001;48.87406500;9.59633600;2023-02-13T09:30:06;96918.00;;;5.42;93.14
2000;BME280;1001;48.87406500;9.59633600;2023-02-13T09:32:33;96916.50;;;5.32;95.00
2000;BME280;1001;48.87406500;9.59633600;2023-02-13T09:35:02;96928.66;;;5.57;94.13
2000;BME280;1001;48.87406500;9.59633600;2023-02-13T09:37:30;96928.44;;;5.76;95.18
2000;BME280;1001;48.87406500;9.59633600;2023-02-13T09:39:57;96938.72;;;5.60;93.68
2000;BME280;1001;48.87406500;9.59633600;2023-02-13T09:42:27;96931.59;;;5.88;94.90
2000;BME280;1001;48.87406500;9.59633600;2023-02-13T09:44:57;96936.06;;;6.03;94.05
2000;BME280;1001;48.87406500;9.59633600;2023-02-13T09:47:29;96926.81;;;6.01;91.55
2000;BME280;1001;48.87406500;9.59633600;2023-02-13T09:49:59;96934.84;;;6.24;92.07
2000;BME280;1001;48.87406500;9.59633600;2023-02-13T09:52:31;96930.44;;;6.16;90.32
2000;BME280;1001;48.87406500;9.59633600;2023-02-13T09:54:59;96937.66;;;6.38;91.94
2000;BME280;1001;48.87406500;9.59633600;2023-02-13T09:57:30;96927.66;;;6.59;92.16
2000;BME280;1001;48.87406500;9.59633600;2023-02-13T10:00:05;96933.44;;;6.37;89.65
2000;BME280;1001;48.87406500;9.59633600;2023-02-13T10:02:51;96924.81;;;6.29;92.17
2000;BME280;1001;48.87406500;9.59633600;2023-02-13T10:05:36;96930.31;;;6.26;93.46
2000;BME280;1001;48.87406500;9.59633600;2023-02-13T10:08:14;96939.47;;;6.46;92.58
2000;BME280;1001;48.87406500;9.59633600;2023-02-13T10:10:50;96934.59;;;6.43;92.35
2000;BME280;1001;48.87406500;9.59633600;2023-02-13T10:13:27;96926.63;;;6.36;91.85
2000;BME280;1001;48.87406500;9.59633600;2023-02-13T10:16:02;96930.34;;;6.42;92.06
2000;BME280;1001;48.87406500;9.59633600;2023-02-13T10:18:42;96926.66;;;6.52;91.99
2000;BME280;1001;48.87406500;9.59633600;2023-02-13T10:21:11;96932.94;;;6.34;90.80
2000;BME280;1001;48.87406500;9.59633600;2023-02-13T10:23:42;96930.34;;;6.34;89.71
2000;BME280;1001;48.87406500;9.59633600;2023-02-13T10:26:17;96928.69;;;6.25;89.77
2000;BME280;1001;48.87406500;9.59633600;2023-02-13T10:28:49;96932.25;;;6.24;89.30
2000;BME280;1001;48.87406500;9.59633600;2023-02-13T10:31:33;96925.63;;;6.37;88.46
2000;BME280;1001;48.87406500;9.59633600;2023-02-13T10:34:02;96929.09;;;6.54;88.50
2000;BME280;1001;48.87406500;9.59633600;2023-02-13T10:36:34;96929.28;;;6.68;87.99
2000;BME280;1001;48.87406500;9.59633600;2023-02-13T10:39:17;96926.25;;;6.97;89.47
2000;BME280;1001;48.87406500;9.59633600;2023-02-13T10:41:50;96914.22;;;6.96;85.82
2000;BME280;1001;48.87406500;9.59633600;2023-02-13T10:44:34;96921.38;;;7.10;88.27
2000;BME280;1001;48.87406500;9.59633600;2023-02-13T10:47:15;96916.47;;;6.91;87.88
2000;BME280;1001;48.87406500;9.59633600;2023-02-13T10:49:56;96919.09;;;6.99;86.99
2000;BME280;1001;48.87406500;9.59633600;2023-02-13T10:52:38;96918.59;;;6.96;86.96
2000;BME280;1001;48.87406500;9.59633600;2023-02-13T10:55:18;96919.41;;;6.96;87.32
2000;BME280;1001;48.87406500;9.59633600;2023-02-13T10:58:02;96913.56;;;6.86;87.06
2000;BME280;1001;48.87406500;9.59633600;2023-02-13T11:00:36;96904.47;;;6.90;87.86
2000;BME280;1001;48.87406500;9.59633600;2023-02-13T11:03:05;96912.94;;;7.00;86.67
2000;BME280;1001;48.87406500;9.59633600;2023-02-13T11:05:44;96899.75;;;7.02;86.70
2000;BME280;1001;48.87406500;9.59633600;2023-02-13T11:08:17;96898.78;;;7.03;88.22
2000;BME280;1001;48.87406500;9.59633600;2023-02-13T11:10:45;96894.38;;;7.11;85.81
2000;BME280;1001;48.87406500;9.59633600;2023-02-13T11:13:17;96898.25;;;7.31;87.75
2000;BME280;1001;48.87406500;9.59633600;2023-02-13T11:16:02;96886.81;;;7.65;85.94
2000;BME280;1001;48.87406500;9.59633600;2023-02-13T11:18:31;96889.06;;;7.84;85.77
2000;BME280;1001;48.87406500;9.59633600;2023-02-13T11:21:07;96879.91;;;7.96;83.82
2000;BME280;1001;48.87406500;9.59633600;2023-02-13T11:23:38;96888.72;;;7.79;85.16
2000;BME280;1001;48.87406500;9.59633600;2023-02-13T11:26:10;96886.31;;;7.85;82.63
2000;BME280;1001;48.87406500;9.59633600;2023-02-13T11:28:46;96888.03;;;7.93;83.26
2000;BME280;1001;48.87406500;9.59633600;2023-02-13T11:31:21;96892.16;;;7.79;81.50
2000;BME280;1001;48.87406500;9.59633600;2023-02-13T11:33:49;96899.97;;;7.87;81.48
2000;BME280;1001;48.87406500;9.59633600;2023-02-13T11:36:27;96899.13;;;7.87;84.64
2000;BME280;1001;48.87406500;9.59633600;2023-02-13T11:38:58;96898.56;;;7.69;83.43
2000;BME280;1001;48.87406500;9.59633600;2023-02-13T11:41:25;96897.88;;;7.83;83.07
2000;BME280;1001;48.87406500;9.59633600;2023-02-13T11:43:55;96896.28;;;7.66;84.13
2000;BME280;1001;48.87406500;9.59633600;2023-02-13T11:46:27;96894.13;;;7.77;83.00
2000;BME280;1001;48.87406500;9.59633600;2023-02-13T11:49:00;96896.28;;;7.66;81.15
2000;BME280;1001;48.87406500;9.59633600;2023-02-13T11:51:36;96905.41;;;7.62;82.29
2000;BME280;1001;48.87406500;9.59633600;2023-02-13T11:54:04;96898.56;;;7.69;82.41
2000;BME280;1001;48.87406500;9.59633600;2023-02-13T11:56:47;96897.31;;;7.95;82.83
2000;BME280;1001;48.87406500;9.59633600;2023-02-13T11:59:14;96901.25;;;7.91;82.59
2000;BME280;1001;48.87406500;9.59633600;2023-02-13T12:01:41;96899.50;;;8.22;80.66
2000;BME280;1001;48.87406500;9.59633600;2023-02-13T12:04:14;96890.13;;;8.44;81.79
2000;BME280;1001;48.87406500;9.59633600;2023-02-13T12:06:57;96890.69;;;8.23;81.05
2000;BME280;1001;48.87406500;9.59633600;2023-02-13T12:09:27;96900.66;;;8.20;80.59
2000;BME280;1001;48.87406500;9.59633600;2023-02-13T12:11:56;96895.88;;;8.23;80.85